X  Close Metar Aviation Weather Data     KBWI Baltimore/Washington International Thurgood Marshall Airport
Temperature
61°F Temperature
36°F Dewpoint
39% Humidity



Wind
5 MPH
8 KM/H
2 M/S
4 KTS



270°
West
Current Conditions

Mostly Scattered Clouds Mostly Scattered Clouds
Pressure 1010.82 (hPa) - 29.85 (inHg)
Visibility 9.9 (mile) - 16 (km)
Airport
Airport-code KBWI

Location: Baltimore/Washington International Thurgood Marshall Airport
Distance: 6 (mi)

Metar:
KBWI 182354Z 27004KT 10SM SCT120 BKN250 16/02 A2985 RMK AO2 SLP108 T01560022 10200 20144 50005

Time: 18-04-2021 19:54 EDT